Погода Ла-Либертадна неделю

Чьяпас, Мексика

23 - 29 февраля
  • 23февраля
    Сегодня
    +24°
    +35°
    Практически безоблачно
    ВремяПогодаТемператураВлажностьДавлениеВетер, м/сВероятность осадков
    00:00Ясно и безоблачно+26°C82 %758 мм1.0 м/с2 %
    03:00Ясно и безоблачно+26°C86 %757 мм0.8 м/с2 %
    06:00Ясно и безоблачно+24°C85 %758 мм1.0 м/с2 %
    09:00Практически безоблачно+29°C67 %760 мм2.0 м/с2 %
    12:00Практически безоблачно+33°C53 %759 мм4.0 м/с3 %
    15:00Практически безоблачно+34°C53 %757 мм5.4 м/с2 %
    18:00Практически безоблачно+30°C62 %757 мм4.0 м/с2 %
    21:00Ясно и безоблачно+29°C69 %759 мм2.8 м/с2 %
  • 24февраля
    Суббота
    +23°
    +36°
    Ясно и безоблачно
    ВремяПогодаТемператураВлажностьДавлениеВетер, м/сВероятность осадков
    00:00Ясно и безоблачно+25°C72 %759 мм1.8 м/с2 %
    03:00Ясно и безоблачно+25°C74 %758 мм1.7 м/с2 %
    06:00Ясно и безоблачно+24°C80 %759 мм1.4 м/с2 %
    09:00Ясно и безоблачно+29°C61 %761 мм0.6 м/с2 %
    12:00Ясно и безоблачно+34°C47 %759 мм2.9 м/с2 %
    15:00Ясно и безоблачно+35°C43 %757 мм4.6 м/с2 %
    18:00Ясно и безоблачно+32°C60 %758 мм2.8 м/с2 %
    21:00Ясно и безоблачно+29°C77 %760 мм0.7 м/с2 %
  • 25февраля
    Воскресенье
    +24°
    +35°
    Ясно и безоблачно
    ВремяПогодаТемператураВлажностьДавлениеВетер, м/сВероятность осадков
    00:00Ясно и безоблачно+26°C83 %760 мм1.0 м/с2 %
    03:00Ясно и безоблачно+25°C83 %759 мм1.2 м/с2 %
    06:00Ясно и безоблачно+24°C78 %760 мм1.1 м/с2 %
    09:00Ясно и безоблачно+29°C52 %761 мм0.3 м/с2 %
    12:00Ясно и безоблачно+34°C50 %760 мм4.2 м/с2 %
    15:00Ясно и безоблачно+35°C58 %758 мм4.7 м/с2 %
    18:00Ясно и безоблачно+32°C67 %759 мм3.2 м/с2 %
    21:00Ясно и безоблачно+30°C75 %760 мм1.5 м/с2 %
  • 26февраля
    Понедельник
    +22°
    +36°
    Небольшая облачность
    ВремяПогодаТемператураВлажностьДавлениеВетер, м/сВероятность осадков
    00:00Ясно и безоблачно+27°C79 %761 мм1.0 м/с3 %
    03:00Практически безоблачно+27°C80 %760 мм1.1 м/с5 %
    06:00Практически безоблачно+24°C81 %760 мм1.2 м/с8 %
    09:00Ясно и безоблачно+30°C60 %762 мм1.1 м/с10 %
    12:00Практически безоблачно+35°C50 %761 мм4.2 м/с19 %
    15:00Небольшая облачность+36°C54 %759 мм4.7 м/с17 %
    18:00Облачно с прояснениями+31°C66 %759 мм3.4 м/с9 %
    21:00Ясно и безоблачно+29°C73 %760 мм2.1 м/с4 %
  • 27февраля
    Вторник
    +23°
    +36°
    Ясно и безоблачно
    ВремяПогодаТемператураВлажностьДавлениеВетер, м/сВероятность осадков
    00:00Ясно и безоблачно+26°C76 %759 мм2.3 м/с2 %
    03:00Ясно и безоблачно+25°C73 %758 мм1.6 м/с2 %
    06:00Ясно и безоблачно+23°C74 %758 мм1.3 м/с2 %
    09:00Ясно и безоблачно+29°C50 %760 мм0.1 м/с2 %
    12:00Ясно и безоблачно+35°C43 %759 мм3.7 м/с2 %
    15:00Ясно и безоблачно+35°C53 %757 мм4.9 м/с2 %
    18:00Ясно и безоблачно+32°C60 %757 мм2.7 м/с2 %
    21:00Ясно и безоблачно+29°C73 %758 мм2.2 м/с2 %
Мы используем cookies
Соглашаюсь